Time;durP1;ratioP1;P1;durP2;ratioP2;P2;SDS_P1;SDS_P2;PMS_P1;PMS_P2;Temp;Humidity;BMP_temperature;BMP_pressure;BME280_temperature;BME280_humidity;BME280_pressure;Samples;Min_cycle;Max_cycle;Signal;HPM_P1;HPM_P2
2023/08/21 00:01:25;;;;;;;7.03;2.55;;;;;;;20.13;100.00;102231.59;5275792;28;20024;-71
2023/08/21 00:03:55;;;;;;;7.50;3.08;;;;;;;20.11;100.00;102239.13;5281847;28;20020;-71
2023/08/21 00:06:26;;;;;;;11.85;2.53;;;;;;;20.10;100.00;102240.16;5284129;28;20465;-71
2023/08/21 00:08:56;;;;;;;7.97;2.50;;;;;;;20.07;100.00;102227.75;5284674;28;20030;-71
2023/08/21 00:11:27;;;;;;;8.13;2.55;;;;;;;20.07;100.00;102237.81;5272666;28;20024;-71
2023/08/21 00:13:57;;;;;;;6.72;2.72;;;;;;;20.05;100.00;102229.84;5277826;28;20432;-71
2023/08/21 00:16:28;;;;;;;8.48;2.35;;;;;;;20.04;100.00;102243.69;5264159;28;20461;-72
2023/08/21 00:18:59;;;;;;;5.40;2.00;;;;;;;20.03;100.00;102236.53;5265447;28;20034;-72
2023/08/21 00:21:29;;;;;;;12.05;3.50;;;;;;;19.99;100.00;102232.53;5265958;28;20073;-71
2023/08/21 00:24:00;;;;;;;11.52;2.20;;;;;;;19.97;100.00;102231.84;5265361;28;20027;-71
2023/08/21 00:26:30;;;;;;;9.63;2.38;;;;;;;19.96;100.00;102235.63;5264426;28;20031;-72
2023/08/21 00:29:01;;;;;;;10.57;2.40;;;;;;;19.96;100.00;102238.34;5264351;28;20148;-72
2023/08/21 00:31:31;;;;;;;16.35;2.38;;;;;;;19.97;100.00;102235.41;5265662;28;20024;-71
2023/08/21 00:34:01;;;;;;;8.15;2.38;;;;;;;20.00;100.00;102245.94;5264752;28;20382;-71
2023/08/21 00:36:32;;;;;;;9.65;2.38;;;;;;;19.97;100.00;102243.59;5264108;28;20114;-71
2023/08/21 00:39:02;;;;;;;9.48;2.45;;;;;;;19.88;100.00;102244.75;5265239;28;20016;-71
2023/08/21 00:41:34;;;;;;;7.25;2.42;;;;;;;19.83;100.00;102239.91;5264490;28;20492;-72
2023/08/21 00:44:04;;;;;;;8.02;2.40;;;;;;;19.79;100.00;102245.94;5278349;28;20063;-71
2023/08/21 00:46:35;;;;;;;6.70;2.78;;;;;;;19.73;100.00;102233.06;5263420;28;20099;-71
2023/08/21 00:49:05;;;;;;;10.27;2.55;;;;;;;19.62;100.00;102238.00;5270330;28;20469;-71
2023/08/21 00:51:36;;;;;;;10.13;2.72;;;;;;;19.55;100.00;102247.09;5272007;28;20036;-71
2023/08/21 00:54:07;;;;;;;8.43;2.03;;;;;;;19.46;100.00;102253.69;5271643;28;20074;-71
2023/08/21 00:56:38;;;;;;;5.72;2.50;;;;;;;19.42;100.00;102250.50;5270361;28;20428;-71
2023/08/21 00:59:09;;;;;;;8.95;2.25;;;;;;;19.47;100.00;102258.09;5271166;28;20028;-71
2023/08/21 01:01:40;;;;;;;13.25;2.35;;;;;;;19.57;100.00;102258.63;5283140;28;20020;-71
2023/08/21 01:04:11;;;;;;;7.78;2.53;;;;;;;19.63;100.00;102263.38;5288517;28;20103;-71
2023/08/21 01:06:42;;;;;;;9.07;2.70;;;;;;;19.61;100.00;102257.25;5290113;28;20080;-71
2023/08/21 01:09:23;;;;;;;9.40;2.55;;;;;;;19.58;100.00;102249.44;5279553;28;20016;-72
2023/08/21 01:12:25;;;;;;;11.65;2.50;;;;;;;19.53;100.00;102250.03;5287852;28;20028;-71
2023/08/21 01:15:09;;;;;;;9.30;2.42;;;;;;;19.53;100.00;102260.91;5287383;27;20619;-71
2023/08/21 01:17:43;;;;;;;11.25;3.33;;;;;;;19.45;100.00;102254.72;5290674;28;20462;-71
2023/08/21 01:20:17;;;;;;;7.78;2.30;;;;;;;19.35;100.00;102255.03;5291947;28;20396;-71
2023/08/21 01:22:50;;;;;;;16.30;2.92;;;;;;;19.23;100.00;102256.53;5291769;28;20465;-71
2023/08/21 01:25:20;;;;;;;9.05;2.08;;;;;;;19.13;100.00;102259.56;5291438;28;20488;-71
2023/08/21 01:27:51;;;;;;;7.40;2.67;;;;;;;19.08;100.00;102260.13;5290505;28;20036;-71
2023/08/21 01:30:22;;;;;;;9.32;2.20;;;;;;;19.02;100.00;102254.56;5292120;28;20027;-71
2023/08/21 01:33:15;;;;;;;9.68;2.35;;;;;;;18.95;100.00;102253.66;5289502;28;20027;-71
2023/08/21 01:35:46;;;;;;;7.97;2.15;;;;;;;18.94;100.00;102258.25;5281122;28;20027;-71
2023/08/21 01:38:18;;;;;;;7.00;2.75;;;;;;;18.91;100.00;102252.34;5291862;28;20304;-71
2023/08/21 01:40:48;;;;;;;14.45;2.55;;;;;;;18.92;100.00;102260.28;5291337;28;20027;-71
2023/08/21 01:43:20;;;;;;;7.88;2.40;;;;;;;18.89;100.00;102257.97;5291443;28;20390;-71
2023/08/21 01:45:50;;;;;;;10.80;2.33;;;;;;;18.85;100.00;102257.50;5290300;28;20039;-71
2023/08/21 01:48:21;;;;;;;7.18;2.60;;;;;;;18.81;100.00;102261.59;5291198;28;20016;-71
2023/08/21 01:50:51;;;;;;;8.10;2.05;;;;;;;18.75;100.00;102269.66;5277802;28;20087;-72
2023/08/21 01:53:23;;;;;;;11.07;2.42;;;;;;;18.67;100.00;102261.56;5291516;28;20026;-71
2023/08/21 01:55:53;;;;;;;7.40;2.65;;;;;;;18.61;100.00;102268.56;5290306;28;20579;-71
2023/08/21 01:58:24;;;;;;;5.32;2.28;;;;;;;18.54;100.00;102259.50;5290549;28;20411;-71
2023/08/21 02:00:54;;;;;;;9.75;3.40;;;;;;;18.47;100.00;102261.25;5273094;28;20015;-71
2023/08/21 02:03:30;;;;;;;8.82;2.92;;;;;;;18.35;100.00;102255.41;5288229;28;20019;-71
2023/08/21 02:06:01;;;;;;;10.48;2.88;;;;;;;18.25;100.00;102268.41;5289881;27;20448;-71
2023/08/21 02:08:32;;;;;;;12.95;2.33;;;;;;;18.18;100.00;102268.28;5272801;28;20024;-70
2023/08/21 02:11:03;;;;;;;10.52;2.70;;;;;;;18.15;100.00;102265.94;5289358;28;20030;-71
2023/08/21 02:13:34;;;;;;;7.18;2.15;;;;;;;18.15;100.00;102259.66;5287809;28;20209;-71
2023/08/21 02:16:05;;;;;;;9.73;2.63;;;;;;;18.09;100.00;102251.22;5286466;28;20027;-71
2023/08/21 02:18:35;;;;;;;10.68;2.88;;;;;;;18.07;100.00;102255.13;5287273;28;20034;-71
2023/08/21 02:21:06;;;;;;;9.48;2.97;;;;;;;18.05;100.00;102249.03;5287584;28;20111;-71
2023/08/21 02:23:36;;;;;;;7.18;3.08;;;;;;;18.08;100.00;102254.97;5282152;28;20043;-71
2023/08/21 02:26:07;;;;;;;6.05;2.72;;;;;;;18.11;100.00;102251.84;5259674;28;20024;-71
2023/08/21 02:28:37;;;;;;;12.20;2.70;;;;;;;18.10;100.00;102257.47;5287245;28;20114;-71
2023/08/21 02:31:10;;;;;;;9.75;3.15;;;;;;;18.07;100.00;102257.84;5274060;28;20016;-71
2023/08/21 02:33:41;;;;;;;9.80;2.63;;;;;;;18.05;100.00;102251.75;5266486;28;20024;-70
2023/08/21 02:36:11;;;;;;;6.97;2.65;;;;;;;18.00;100.00;102255.00;5279447;28;20024;-70
2023/08/21 02:38:42;;;;;;;4.65;2.75;;;;;;;18.00;100.00;102255.00;5286991;28;20058;-70
2023/08/21 02:41:13;;;;;;;5.75;2.53;;;;;;;18.00;100.00;102256.88;5287079;28;20023;-71
2023/08/21 02:43:43;;;;;;;9.02;2.42;;;;;;;18.05;100.00;102257.19;5287084;28;20031;-71
2023/08/21 02:46:14;;;;;;;8.82;2.97;;;;;;;18.10;100.00;102252.91;5285474;28;20099;-70
2023/08/21 02:48:44;;;;;;;6.38;2.47;;;;;;;18.13;100.00;102254.41;5268110;28;20039;-70
2023/08/21 02:51:15;;;;;;;8.27;3.05;;;;;;;18.13;100.00;102259.84;5286634;28;20027;-70
2023/08/21 02:53:45;;;;;;;10.57;2.80;;;;;;;18.14;100.00;102261.53;5286581;28;20110;-71
2023/08/21 02:56:16;;;;;;;14.38;3.65;;;;;;;18.14;100.00;102266.13;5285192;28;20414;-71
2023/08/21 02:58:46;;;;;;;8.05;2.72;;;;;;;18.12;100.00;102266.28;5272403;28;20024;-71
2023/08/21 03:01:17;;;;;;;10.48;3.30;;;;;;;18.10;100.00;102262.91;5278012;28;20111;-71
2023/08/21 03:03:47;;;;;;;14.38;3.00;;;;;;;18.10;100.00;102261.03;5267445;28;20498;-71
2023/08/21 03:06:18;;;;;;;7.82;3.17;;;;;;;18.10;100.00;102262.91;5285103;28;20080;-71
2023/08/21 03:08:48;;;;;;;7.68;3.17;;;;;;;18.03;100.00;102264.69;5283064;28;20023;-70
2023/08/21 03:11:19;;;;;;;8.27;3.00;;;;;;;17.92;100.00;102259.66;5285779;28;20444;-71
2023/08/21 03:13:49;;;;;;;7.45;2.92;;;;;;;17.86;100.00;102264.78;5286254;28;20042;-71
2023/08/21 03:16:20;;;;;;;12.95;2.95;;;;;;;17.86;100.00;102267.47;5285566;28;20020;-71
2023/08/21 03:19:09;;;;;;;12.65;3.40;;;;;;;17.81;100.00;102269.06;5279795;28;20034;-71
2023/08/21 03:21:40;;;;;;;10.88;3.65;;;;;;;17.79;100.00;102269.25;5281167;28;20030;-71
2023/08/21 03:24:10;;;;;;;10.13;3.80;;;;;;;17.75;100.00;102276.03;5275767;28;20032;-70
2023/08/21 03:26:41;;;;;;;12.55;3.70;;;;;;;17.71;100.00;102271.13;5277297;28;20020;-71
2023/08/21 03:29:11;;;;;;;10.77;3.85;;;;;;;17.68;100.00;102276.94;5276477;28;20088;-71
2023/08/21 03:31:42;;;;;;;9.82;3.83;;;;;;;17.64;100.00;102276.44;5285856;28;20024;-71
2023/08/21 03:34:12;;;;;;;10.48;4.10;;;;;;;17.61;100.00;102274.06;5272921;28;20031;-71
2023/08/21 03:36:43;;;;;;;12.98;3.75;;;;;;;17.57;100.00;102276.31;5283405;28;20020;-71
2023/08/21 03:39:13;;;;;;;17.35;4.18;;;;;;;17.56;100.00;102280.00;5285661;28;20027;-71
2023/08/21 03:41:43;;;;;;;10.32;3.85;;;;;;;17.54;100.00;102275.81;5286024;28;20019;-71
2023/08/21 03:44:14;;;;;;;13.73;4.70;;;;;;;17.51;100.00;102277.00;5286067;28;20055;-71
2023/08/21 03:46:44;;;;;;;11.75;4.07;;;;;;;17.50;100.00;102283.44;5284270;28;20031;-71
2023/08/21 03:49:15;;;;;;;18.42;4.45;;;;;;;17.45;100.00;102280.41;5285640;28;20024;-71
2023/08/21 03:51:45;;;;;;;10.60;4.35;;;;;;;17.38;100.00;102279.44;5286065;28;20369;-71
2023/08/21 03:54:16;;;;;;;10.13;4.22;;;;;;;17.34;100.00;102278.94;5285555;28;20015;-71
2023/08/21 03:56:46;;;;;;;10.32;4.18;;;;;;;17.31;100.00;102282.00;5284128;28;20027;-71
2023/08/21 03:59:17;;;;;;;10.52;3.67;;;;;;;17.29;100.00;102278.63;5261386;28;20027;-71
2023/08/21 04:01:47;;;;;;;9.52;3.92;;;;;;;17.27;100.00;102272.53;5277612;28;20046;-71
2023/08/21 04:04:18;;;;;;;17.05;4.95;;;;;;;17.22;100.00;102280.38;5270876;28;20016;-71
2023/08/21 04:06:49;;;;;;;8.60;3.78;;;;;;;17.17;100.00;102277.34;5283816;28;20023;-71
2023/08/21 04:09:20;;;;;;;8.23;3.88;;;;;;;17.15;100.00;102282.06;5282108;28;20028;-71
2023/08/21 04:11:50;;;;;;;12.27;3.92;;;;;;;17.15;100.00;102279.34;5284865;28;20027;-71
2023/08/21 04:14:21;;;;;;;13.43;4.72;;;;;;;17.14;100.00;102282.25;5267140;28;20019;-71
2023/08/21 04:16:51;;;;;;;12.90;4.18;;;;;;;17.17;100.00;102290.91;5269642;28;20027;-70
2023/08/21 04:19:22;;;;;;;17.38;4.10;;;;;;;17.17;100.00;102295.44;5284760;28;20020;-71
2023/08/21 04:21:52;;;;;;;9.73;4.00;;;;;;;17.18;100.00;102297.16;5285034;28;20491;-71
2023/08/21 04:24:23;;;;;;;11.13;4.25;;;;;;;17.17;100.00;102292.72;5271894;28;20518;-71
2023/08/21 04:26:53;;;;;;;13.30;4.38;;;;;;;17.12;100.00;102297.84;5264296;28;20019;-71
2023/08/21 04:29:24;;;;;;;8.35;3.78;;;;;;;17.09;100.00;102290.91;5285085;28;20023;-71
2023/08/21 04:31:54;;;;;;;8.57;4.15;;;;;;;17.06;100.00;102294.78;5285359;28;20055;-71
2023/08/21 04:34:25;;;;;;;11.52;3.67;;;;;;;16.96;100.00;102293.31;5284439;28;20049;-71
2023/08/21 04:36:55;;;;;;;6.93;3.13;;;;;;;16.91;100.00;102303.81;5283325;28;20027;-71
2023/08/21 04:39:26;;;;;;;11.10;4.10;;;;;;;16.82;100.00;102306.56;5284617;28;20042;-71
2023/08/21 04:41:56;;;;;;;10.00;3.88;;;;;;;16.80;100.00;102303.16;5285084;28;20019;-71
2023/08/21 04:44:26;;;;;;;11.32;4.53;;;;;;;16.78;100.00;102302.50;5284720;28;20023;-70
2023/08/21 04:46:57;;;;;;;11.82;3.97;;;;;;;16.77;100.00;102303.53;5283797;28;20024;-71
2023/08/21 04:49:27;;;;;;;9.65;3.90;;;;;;;16.78;100.00;102299.78;5270803;28;20027;-71
2023/08/21 04:51:58;;;;;;;10.25;4.25;;;;;;;16.79;100.00;102298.75;5285104;28;20053;-71
2023/08/21 04:54:28;;;;;;;9.93;3.30;;;;;;;16.81;100.00;102304.84;5279361;28;20088;-71
2023/08/21 04:56:59;;;;;;;11.77;3.72;;;;;;;16.87;100.00;102303.34;5275715;28;20039;-71
2023/08/21 04:59:29;;;;;;;8.60;3.65;;;;;;;16.91;100.00;102303.81;5282672;28;20393;-71
2023/08/21 05:02:00;;;;;;;17.52;4.38;;;;;;;16.97;100.00;102305.88;5283832;28;20115;-71
2023/08/21 05:04:30;;;;;;;15.20;3.90;;;;;;;16.97;100.00;102298.56;5266369;28;20418;-71
2023/08/21 05:07:01;;;;;;;9.57;4.10;;;;;;;16.97;100.00;102311.28;5282998;28;20049;-71
2023/08/21 05:09:32;;;;;;;14.80;3.95;;;;;;;16.96;100.00;102307.69;5281136;28;20019;-71
2023/08/21 05:12:02;;;;;;;14.68;4.30;;;;;;;16.96;100.00;102304.16;5284624;28;20054;-71
2023/08/21 05:14:33;;;;;;;10.55;4.38;;;;;;;16.98;100.00;102313.81;5284317;28;20031;-71
2023/08/21 05:17:04;;;;;;;9.95;3.72;;;;;;;16.99;100.00;102306.53;5277639;28;20385;-71
2023/08/21 05:19:34;;;;;;;10.40;4.97;;;;;;;16.98;100.00;102302.97;5263664;28;20095;-71
2023/08/21 05:22:05;;;;;;;8.00;3.90;;;;;;;16.98;100.00;102315.69;5264944;28;20090;-71
2023/08/21 05:24:35;;;;;;;16.42;4.80;;;;;;;16.98;100.00;102311.09;5264210;28;20074;-72
2023/08/21 05:27:06;;;;;;;11.80;4.15;;;;;;;16.98;100.00;102312.97;5263583;28;20024;-71
2023/08/21 05:29:36;;;;;;;9.73;4.25;;;;;;;16.98;100.00;102318.38;5264977;28;20077;-71
2023/08/21 05:32:07;;;;;;;14.02;4.13;;;;;;;16.96;100.00;102321.25;5264044;28;20040;-71
2023/08/21 05:34:37;;;;;;;9.40;4.20;;;;;;;17.00;100.00;102317.19;5266549;28;20040;-71
2023/08/21 05:37:08;;;;;;;10.02;4.80;;;;;;;17.09;100.00;102323.44;5266675;28;20377;-71
2023/08/21 05:39:38;;;;;;;14.00;4.43;;;;;;;17.16;100.00;102321.72;5268435;28;20081;-71
2023/08/21 05:42:09;;;;;;;12.55;5.28;;;;;;;17.24;100.00;102323.56;5268057;28;20445;-71
2023/08/21 05:44:40;;;;;;;14.68;5.22;;;;;;;17.35;100.00;102325.91;5269026;28;20560;-71
2023/08/21 05:47:10;;;;;;;11.50;4.55;;;;;;;17.47;100.00;102323.63;5266437;28;20085;-72
2023/08/21 05:49:40;;;;;;;12.10;4.80;;;;;;;17.60;100.00;102315.78;5281076;28;20028;-71
2023/08/21 05:52:11;;;;;;;14.40;5.40;;;;;;;17.73;100.00;102326.97;5267545;28;20030;-72
2023/08/21 05:54:41;;;;;;;12.45;4.93;;;;;;;17.96;100.00;102331.56;5257211;28;20026;-72
2023/08/21 05:57:12;;;;;;;13.65;5.10;;;;;;;18.42;100.00;102335.16;5273274;28;20024;-72
2023/08/21 05:59:45;;;;;;;15.90;4.57;;;;;;;19.06;100.00;102335.59;5277234;28;20085;-72
2023/08/21 06:02:15;;;;;;;11.57;4.45;;;;;;;19.81;100.00;102344.59;5275839;28;20027;-72
2023/08/21 06:04:46;;;;;;;11.80;3.45;;;;;;;20.50;100.00;102338.66;5285971;28;20022;-72
2023/08/21 06:07:16;;;;;;;11.43;3.75;;;;;;;21.16;100.00;102342.75;5284175;28;20092;-73
2023/08/21 06:09:47;;;;;;;11.23;3.28;;;;;;;21.79;100.00;102339.94;5278959;28;20019;-72
2023/08/21 06:12:19;;;;;;;10.55;3.33;;;;;;;22.48;100.00;102336.13;5282085;28;20135;-72
2023/08/21 06:14:49;;;;;;;9.00;3.03;;;;;;;22.99;100.00;102344.56;5278006;28;20030;-73
2023/08/21 06:17:19;;;;;;;8.27;3.17;;;;;;;23.22;100.00;102335.88;5251515;28;20032;-73
2023/08/21 06:19:50;;;;;;;11.88;2.65;;;;;;;23.60;100.00;102339.78;5285528;28;20110;-73
2023/08/21 06:22:21;;;;;;;9.50;3.25;;;;;;;23.80;100.00;102343.28;5284937;28;20182;-73
2023/08/21 06:24:51;;;;;;;15.57;2.65;;;;;;;24.16;100.00;102339.09;5285130;28;20028;-73
2023/08/21 06:27:22;;;;;;;11.02;2.95;;;;;;;24.49;100.00;102342.44;5282748;28;20034;-73
2023/08/21 06:29:52;;;;;;;11.95;2.85;;;;;;;24.85;100.00;102345.53;5266734;28;20036;-73
2023/08/21 06:32:23;;;;;;;8.10;3.00;;;;;;;24.95;100.00;102346.72;5263765;28;20043;-73
2023/08/21 06:34:53;;;;;;;8.32;2.80;;;;;;;25.10;100.00;102345.53;5282594;28;20442;-73
2023/08/21 06:37:24;;;;;;;10.68;3.30;;;;;;;25.14;100.00;102346.75;5283492;28;20027;-73
2023/08/21 06:39:55;;;;;;;12.75;2.88;;;;;;;25.28;100.00;102332.66;5284468;28;20031;-73
2023/08/21 06:42:26;;;;;;;14.13;2.92;;;;;;;25.75;100.00;102340.34;5285296;28;20473;-73
2023/08/21 06:44:56;;;;;;;10.82;4.05;;;;;;;25.77;100.00;102336.31;5284881;28;20200;-73
2023/08/21 06:47:27;;;;;;;12.60;3.10;;;;;;;26.16;100.00;102341.50;5282628;28;20073;-73
2023/08/21 06:50:00;;;;;;;11.73;3.60;;;;;;;26.31;100.00;102339.16;5276131;28;20065;-73
2023/08/21 06:52:30;;;;;;;12.27;3.45;;;;;;;26.21;100.00;102328.72;5277110;28;20039;-74
2023/08/21 06:55:01;;;;;;;14.15;2.97;;;;;;;26.25;100.00;102337.31;5274375;28;20508;-73
2023/08/21 06:57:31;;;;;;;13.13;3.35;;;;;;;26.68;100.00;102333.50;5269567;28;20015;-73
2023/08/21 07:00:02;;;;;;;14.07;3.92;;;;;;;26.32;100.00;102338.06;5284187;28;20046;-74
2023/08/21 07:02:33;;;;;;;15.02;3.13;;;;;;;26.60;100.00;102340.16;5284197;28;20400;-74
2023/08/21 07:05:04;;;;;;;11.30;2.85;;;;;;;26.66;100.00;102332.88;5280860;28;20019;-74
2023/08/21 07:07:35;;;;;;;13.88;3.05;;;;;;;26.83;100.00;102333.84;5282647;28;20230;-74
2023/08/21 07:10:08;;;;;;;10.38;2.95;;;;;;;26.79;100.00;102329.91;5280351;28;20069;-74
2023/08/21 07:12:38;;;;;;;13.73;3.08;;;;;;;26.86;100.00;102330.63;5272415;28;20054;-74
2023/08/21 07:15:09;;;;;;;8.57;3.00;;;;;;;26.70;100.00;102334.09;5270563;28;20354;-74
2023/08/21 07:17:40;;;;;;;16.15;2.95;;;;;;;27.02;100.00;102329.91;5264661;28;20107;-74
2023/08/21 07:20:11;;;;;;;15.85;3.13;;;;;;;27.26;100.00;102332.66;5284234;28;20030;-74
2023/08/21 07:22:42;;;;;;;10.52;2.53;;;;;;;27.85;100.00;102339.69;5273766;28;20031;-74
2023/08/21 07:25:13;;;;;;;10.70;2.80;;;;;;;27.77;100.00;102347.56;5281368;28;20034;-74
2023/08/21 07:27:43;;;;;;;10.32;2.92;;;;;;;27.09;100.00;102335.31;5282257;28;20030;-74
2023/08/21 07:30:17;;;;;;;11.68;3.25;;;;;;;27.38;100.00;102343.66;5277658;28;20024;-74
2023/08/21 07:32:48;;;;;;;7.40;2.50;;;;;;;27.44;100.00;102340.75;5277571;28;20023;-74
2023/08/21 07:35:20;;;;;;;12.90;3.45;;;;;;;27.54;100.00;102342.91;5283917;28;20177;-74
2023/08/21 07:37:51;;;;;;;13.23;3.10;;;;;;;27.36;100.00;102349.41;5268782;28;20051;-74
2023/08/21 07:40:21;;;;;;;8.05;2.55;;;;;;;27.47;100.00;102348.56;5284135;28;20027;-74
2023/08/21 07:42:52;;;;;;;7.30;2.25;;;;;;;28.65;100.00;102354.41;5283786;28;20031;-74
2023/08/21 07:45:22;;;;;;;8.65;2.75;;;;;;;28.26;100.00;102357.00;5283660;28;20461;-74
2023/08/21 07:47:53;;;;;;;8.18;2.70;;;;;;;28.08;100.00;102357.25;5269064;28;20028;-74
2023/08/21 07:50:23;;;;;;;11.02;2.60;;;;;;;27.88;100.00;102349.41;5283466;28;20092;-74
2023/08/21 07:52:54;;;;;;;8.77;2.80;;;;;;;28.36;100.00;102353.63;5285109;28;20027;-74
2023/08/21 07:55:24;;;;;;;11.68;2.72;;;;;;;28.14;100.00;102357.09;5285570;28;20096;-74
2023/08/21 07:57:55;;;;;;;9.90;2.60;;;;;;;28.09;100.00;102365.25;5276094;28;20094;-74
2023/08/21 08:00:25;;;;;;;10.73;2.67;;;;;;;28.76;100.00;102370.03;5279243;28;20028;-74
2023/08/21 08:02:56;;;;;;;14.48;3.10;;;;;;;28.69;100.00;102357.50;5285524;28;20026;-74
2023/08/21 08:05:26;;;;;;;6.00;2.33;;;;;;;28.93;100.00;102359.00;5284788;28;20386;-74
2023/08/21 08:07:57;;;;;;;8.85;2.40;;;;;;;29.14;100.00;102362.94;5284190;28;20016;-74
2023/08/21 08:10:27;;;;;;;9.05;2.40;;;;;;;29.14;100.00;102363.75;5274714;28;20586;-74
2023/08/21 08:12:58;;;;;;;12.38;3.05;;;;;;;28.96;100.00;102372.31;5285533;28;20023;-74
2023/08/21 08:15:28;;;;;;;15.82;3.00;;;;;;;29.66;100.00;102368.91;5284871;28;20384;-74
2023/08/21 08:17:59;;;;;;;12.43;3.08;;;;;;;29.30;100.00;102373.09;5283877;28;20035;-74
2023/08/21 08:20:30;;;;;;;10.00;2.10;;;;;;;29.79;100.00;102372.38;5265409;28;20103;-74
2023/08/21 08:23:00;;;;;;;17.00;3.05;;;;;;;30.02;100.00;102371.22;5277736;28;20098;-74
2023/08/21 08:25:31;;;;;;;7.22;2.35;;;;;;;30.30;100.00;102368.25;5271294;28;20041;-74
2023/08/21 08:28:01;;;;;;;11.73;3.15;;;;;;;29.95;100.00;102365.91;5282391;28;20073;-74
2023/08/21 08:30:33;;;;;;;8.20;2.60;;;;;;;29.73;100.00;102362.34;5272852;28;20027;-74
2023/08/21 08:33:03;;;;;;;12.43;3.17;;;;;;;29.10;100.00;102364.53;5282075;28;20073;-74
2023/08/21 08:35:34;;;;;;;13.75;2.88;;;;;;;29.38;100.00;102367.16;5274321;28;20027;-74
2023/08/21 08:38:05;;;;;;;12.15;3.25;;;;;;;29.25;100.00;102361.13;5284165;28;20087;-74
2023/08/21 08:40:43;;;;;;;9.98;2.25;;;;;;;29.66;100.00;102362.53;5284944;28;20465;-74
2023/08/21 08:43:14;;;;;;;7.78;2.45;;;;;;;29.96;100.00;102369.53;5271622;28;20093;-74
2023/08/21 08:45:47;;;;;;;9.00;2.38;;;;;;;30.50;100.00;102367.59;5270241;28;20028;-74
2023/08/21 08:48:19;;;;;;;10.50;2.80;;;;;;;30.35;100.00;102370.22;5284883;28;20051;-74
2023/08/21 08:50:51;;;;;;;8.63;2.90;;;;;;;30.79;100.00;102368.16;5284931;28;20031;-74
2023/08/21 08:53:22;;;;;;;8.60;2.30;;;;;;;30.47;100.00;102370.88;5276037;28;20103;-74
2023/08/21 08:55:53;;;;;;;6.80;1.88;;;;;;;30.12;100.00;102372.25;5280013;28;20032;-74
2023/08/21 08:58:23;;;;;;;9.07;1.95;;;;;;;29.87;100.00;102369.13;5284305;28;20472;-74
2023/08/21 09:00:54;;;;;;;6.30;1.77;;;;;;;30.11;100.00;102369.69;5279668;28;20034;-74
2023/08/21 09:03:24;;;;;;;8.90;2.47;;;;;;;29.87;100.00;102364.47;5277009;28;20012;-74
2023/08/21 09:05:55;;;;;;;9.35;2.20;;;;;;;29.96;100.00;102359.28;5283994;28;20118;-74
2023/08/21 09:08:25;;;;;;;6.40;1.92;;;;;;;30.14;100.00;102361.72;5283755;28;20032;-74
2023/08/21 09:11:01;;;;;;;10.43;1.65;;;;;;;30.24;100.00;102365.69;5286091;28;20186;-74
2023/08/21 09:13:32;;;;;;;6.38;1.48;;;;;;;30.36;100.00;102363.59;5289144;28;20038;-74
2023/08/21 09:16:03;;;;;;;8.43;1.90;;;;;;;31.26;100.00;102356.28;5287870;28;20443;-74
2023/08/21 09:18:34;;;;;;;8.98;2.00;;;;;;;30.74;100.00;102347.88;5275356;28;20031;-74
2023/08/21 09:21:05;;;;;;;3.38;1.33;;;;;;;31.05;100.00;102343.38;5288897;28;20080;-74
2023/08/21 09:23:37;;;;;;;4.03;1.67;;;;;;;31.10;100.00;102352.56;5288516;28;20028;-74
2023/08/21 09:26:08;;;;;;;6.38;1.80;;;;;;;30.85;100.00;102355.16;5276402;28;20028;-74
2023/08/21 09:28:38;;;;;;;4.55;1.55;;;;;;;30.64;100.00;102352.22;5270877;28;20529;-74
2023/08/21 09:31:10;;;;;;;6.10;1.42;;;;;;;30.58;99.32;102350.50;5287057;28;20027;-74
2023/08/21 09:33:42;;;;;;;6.05;1.40;;;;;;;30.36;100.00;102346.97;5286968;28;20023;-74
2023/08/21 09:36:13;;;;;;;9.45;1.50;;;;;;;30.50;100.00;102350.16;5272096;28;20023;-74
2023/08/21 09:38:46;;;;;;;5.75;1.35;;;;;;;30.42;100.00;102354.22;5275617;28;20020;-74
2023/08/21 09:41:20;;;;;;;9.73;1.50;;;;;;;31.12;100.00;102347.56;5283698;28;20087;-74
2023/08/21 09:43:50;;;;;;;5.90;1.83;;;;;;;30.75;100.00;102346.78;5286665;28;20259;-74
2023/08/21 09:46:40;;;;;;;5.65;1.60;;;;;;;30.51;100.00;102351.81;5274184;28;20028;-74
2023/08/21 09:49:11;;;;;;;9.07;1.88;;;;;;;30.40;100.00;102348.97;5265160;28;20016;-74
2023/08/21 09:51:42;;;;;;;4.35;1.85;;;;;;;30.14;100.00;102341.53;5265120;28;20042;-74
2023/08/21 09:54:14;;;;;;;7.40;2.08;;;;;;;30.36;100.00;102335.91;5283922;28;20024;-74
2023/08/21 09:56:47;;;;;;;5.68;1.38;;;;;;;30.95;100.00;102335.84;5284612;28;20354;-74
2023/08/21 09:59:18;;;;;;;5.82;1.83;;;;;;;30.89;100.00;102340.50;5280549;28;20461;-74
2023/08/21 10:01:51;;;;;;;5.07;1.50;;;;;;;30.72;100.00;102348.13;5278037;28;20034;-74
2023/08/21 10:04:23;;;;;;;6.97;1.30;;;;;;;29.96;100.00;102334.38;5267603;28;20041;-74
2023/08/21 10:06:55;;;;;;;7.78;1.67;;;;;;;29.49;100.00;102329.41;5284022;28;20027;-74
2023/08/21 10:09:28;;;;;;;9.75;2.30;;;;;;;29.23;100.00;102336.53;5283366;28;20023;-74
2023/08/21 10:11:58;;;;;;;6.47;1.40;;;;;;;29.34;100.00;102341.09;5272439;28;20048;-74
2023/08/21 10:14:29;;;;;;;6.45;0.95;;;;;;;29.29;100.00;102338.28;5285503;28;20586;-74
2023/08/21 10:17:00;;;;;;;3.67;0.50;;;;;;;28.80;86.64;102345.53;5269884;28;20473;-74
2023/08/21 10:19:31;;;;;;;1.55;0.55;;;;;;;28.16;95.71;102336.69;5286051;28;20169;-74
2023/08/21 10:22:03;;;;;;;5.25;1.17;;;;;;;27.63;99.70;102334.00;5284532;28;20194;-74
2023/08/21 10:27:29;;;;;;;4.75;1.20;;;;;;;27.69;100.00;102336.88;5271433;28;20028;-73
2023/08/21 10:30:00;;;;;;;5.60;1.42;;;;;;;27.78;100.00;102338.19;5267414;28;20402;-73
2023/08/21 10:32:31;;;;;;;7.35;1.15;;;;;;;27.76;100.00;102334.81;5276718;28;20023;-73
2023/08/21 10:35:01;;;;;;;8.48;1.27;;;;;;;27.94;100.00;102340.16;5285459;28;20386;-73
2023/08/21 10:37:32;;;;;;;7.30;1.65;;;;;;;28.35;100.00;102339.00;5282601;28;20031;-73
2023/08/21 10:40:03;;;;;;;10.15;1.55;;;;;;;28.80;100.00;102337.25;5278474;28;20255;-74
2023/08/21 10:42:39;;;;;;;7.90;1.90;;;;;;;28.72;100.00;102332.16;5279459;28;20396;-73
2023/08/21 10:45:11;;;;;;;7.70;2.08;;;;;;;28.89;100.00;102342.09;5275759;28;20016;-74
2023/08/21 10:47:42;;;;;;;5.07;1.33;;;;;;;29.02;100.00;102327.13;5278530;28;20030;-74
2023/08/21 10:50:12;;;;;;;3.53;1.40;;;;;;;29.02;100.00;102338.19;5286795;28;20372;-73
2023/08/21 10:52:45;;;;;;;5.53;1.38;;;;;;;28.97;100.00;102334.47;5285839;28;20049;-74
2023/08/21 10:55:18;;;;;;;2.67;1.30;;;;;;;29.04;100.00;102324.94;5283327;28;20079;-74
2023/08/21 10:57:49;;;;;;;4.15;1.05;;;;;;;29.56;100.00;102330.06;5278113;28;20019;-74
2023/08/21 11:00:20;;;;;;;6.55;1.40;;;;;;;29.64;100.00;102328.78;5284508;28;20038;-74
2023/08/21 11:02:51;;;;;;;3.33;1.10;;;;;;;29.89;100.00;102325.47;5284519;27;20023;-73
2023/08/21 11:05:22;;;;;;;3.33;1.17;;;;;;;29.98;100.00;102326.69;5290636;27;20042;-74
2023/08/21 11:07:52;;;;;;;5.47;1.40;;;;;;;29.94;100.00;102320.00;5284811;28;20020;-74
2023/08/21 11:10:24;;;;;;;7.47;1.80;;;;;;;29.70;100.00;102329.69;5281341;28;20119;-74
2023/08/21 11:12:56;;;;;;;6.82;1.73;;;;;;;29.53;100.00;102326.97;5289186;27;20031;-74
2023/08/21 11:15:28;;;;;;;7.35;1.45;;;;;;;29.11;100.00;102330.28;5284468;28;20389;-74
2023/08/21 11:18:01;;;;;;;12.32;1.95;;;;;;;28.94;100.00;102323.94;5284792;28;20081;-74
2023/08/21 11:20:33;;;;;;;4.95;1.40;;;;;;;29.02;100.00;102326.25;5285703;28;20024;-73
2023/08/21 11:23:07;;;;;;;6.40;1.60;;;;;;;28.91;100.00;102333.53;5285207;28;20047;-74
2023/08/21 11:25:40;;;;;;;5.17;1.40;;;;;;;28.58;100.00;102331.66;5284253;27;20038;-74
2023/08/21 11:28:10;;;;;;;8.10;1.80;;;;;;;28.47;100.00;102333.44;5285522;28;20487;-73
2023/08/21 11:30:43;;;;;;;5.15;1.65;;;;;;;28.61;100.00;102331.97;5285764;28;20110;-74
2023/08/21 11:33:14;;;;;;;11.20;1.52;;;;;;;28.65;100.00;102335.91;5284785;27;20107;-74
2023/08/21 11:35:44;;;;;;;3.35;1.20;;;;;;;28.76;100.00;102325.03;5276376;28;20438;-74